Hovedside
METAR-TAF:

METAR-TAF

Lufthavner :

Skavsta lufthavn

Stockholm-Skavsta, Sverige

breddegrad: 58-47N, lengdegrad: 016-55E, høyde over havet: 43 m

Gjeldene værobservasjon

Denne rapporten ble laget for 42 minutter siden, klokken 04:20 UTC
Vind 7 kt fra Øst
Temperatur 8°C
Luftfuktighet 66%
Trykk 1017 hPa
Sikt 10 km eller mer
ingen skyer under 1500 m og ingen bygeskyer

METAR: ESKN 250420Z 08007KT CAVOK 08/02 Q1017

Tid: 07:02 (05:02 UTC)

Varsel

Denne rapporten ble laget for 5 timer og 32 minutter siden, klokken 23:30 UTC
Varsel gyldig fra 25. klokken 00 UTC til 25. klokken 24 UTC
Vind 9 kt fra Øst
Sikt 10 km eller mer
ingen skyer under 1500 m og ingen bygeskyer
Midlertidig
fra 25. klokken 10 UTC til 25. klokken 16 UTC
Vind 15 kt fra Sør-sørøst med vindkast opp mot 25 kt

TAF: ESKN 242330Z 2500/2524 09009KT CAVOK TEMPO 2510/2516 15015G25KT

Værobservasjoner og værvarsel for over 4000 flyplasser (METAR- og TAF-rapporter).

Tilgjengelige stasjoner er representert av de røde og gule prikkene på kartet.

Hold musepekeren over prikken for å se navnet på stasjonen.

Klikk så for å se værobservasjoner og -varsler.

For å forandre kartet kan du klikke på den grønne knappen med svart kryss for å zoome inn, på den grønne knappen med strek for å zoome ut, eller på de grønne pilene for å se tilstøtende kart.


METAR-TAF: